createdAt,value
2024-02-06T00:03:00.599Z,100837.28
2024-02-06T00:07:52.464Z,100832.00
2024-02-06T00:12:44.272Z,100817.97
2024-02-06T00:17:36.097Z,100836.16
2024-02-06T00:22:28.972Z,100829.34
2024-02-06T00:27:20.773Z,100823.75
2024-02-06T00:32:12.936Z,100838.91
2024-02-06T00:37:04.891Z,100836.16
2024-02-06T00:41:56.577Z,100837.88
2024-02-06T00:46:48.398Z,100832.00
2024-02-06T00:51:40.085Z,100837.00
2024-02-06T00:56:31.906Z,100836.25
2024-02-06T01:01:24.103Z,100829.34
2024-02-06T01:06:15.996Z,100825.84
2024-02-06T01:11:07.800Z,100823.19
2024-02-06T01:15:59.912Z,100820.25
2024-02-06T01:20:51.755Z,100810.78
2024-02-06T01:25:43.576Z,100807.06
2024-02-06T01:30:35.314Z,100801.09
2024-02-06T01:35:27.375Z,100798.16
2024-02-06T01:40:19.246Z,100804.53
2024-02-06T01:45:11.146Z,100785.00
2024-02-06T01:50:03.731Z,100774.59
2024-02-06T01:54:55.755Z,100779.88
2024-02-06T01:59:48.599Z,100777.22
2024-02-06T02:04:40.405Z,100777.22
2024-02-06T02:09:32.227Z,100770.31
2024-02-06T02:14:24.199Z,100768.44
2024-02-06T02:19:16.115Z,100768.34
2024-02-06T02:24:09.192Z,100758.66
2024-02-06T02:29:01.651Z,100761.31
2024-02-06T02:33:53.675Z,100755.19
2024-02-06T02:38:45.612Z,100761.13
2024-02-06T02:43:37.517Z,100762.19
2024-02-06T02:48:29.519Z,100751.66
2024-02-06T02:53:21.216Z,100753.38
2024-02-06T02:58:12.961Z,100740.22
2024-02-06T03:03:05.021Z,100753.38
2024-02-06T03:07:56.786Z,100747.22
2024-02-06T03:12:48.530Z,100745.50
2024-02-06T03:17:40.360Z,100739.34
2024-02-06T03:22:35.760Z,100740.09
2024-02-06T03:27:27.758Z,100737.56
2024-02-06T03:32:19.616Z,100742.75
2024-02-06T03:37:11.425Z,100735.56
2024-02-06T03:42:03.290Z,100739.75
2024-02-06T03:46:54.935Z,100736.69
2024-02-06T03:51:46.575Z,100714.94
2024-02-06T03:56:38.244Z,100736.09
2024-02-06T04:01:30.100Z,100724.44
2024-02-06T04:06:21.970Z,100731.38
2024-02-06T04:11:13.777Z,100730.41
2024-02-06T04:16:06.661Z,100732.88
2024-02-06T04:20:58.670Z,100723.00
2024-02-06T04:25:50.764Z,100724.56
2024-02-06T04:30:42.877Z,100726.44
2024-02-06T04:35:34.640Z,100725.28
2024-02-06T04:40:30.735Z,100719.03
2024-02-06T04:45:23.084Z,100725.88
2024-02-06T04:50:15.065Z,100707.84
2024-02-06T04:55:07.569Z,100723.88
2024-02-06T04:59:59.492Z,100721.97
2024-02-06T05:04:52.935Z,100727.28
2024-02-06T05:09:44.788Z,100722.63
2024-02-06T05:14:38.035Z,100719.22
2024-02-06T05:19:29.912Z,100723.38
2024-02-06T05:24:22.154Z,100711.91
2024-02-06T05:29:14.513Z,100715.41
2024-02-06T05:34:06.369Z,100711.06
2024-02-06T05:38:58.183Z,100712.75
2024-02-06T05:43:49.910Z,100703.84
2024-02-06T05:48:41.657Z,100707.34
2024-02-06T05:53:36.804Z,100711.06
2024-02-06T05:58:28.616Z,100707.44
2024-02-06T06:03:20.640Z,100713.09
2024-02-06T06:08:12.513Z,100718.59
2024-02-06T06:13:04.863Z,100718.59
2024-02-06T06:17:56.755Z,100707.00
2024-02-06T06:22:49.007Z,100708.00
2024-02-06T06:27:43.393Z,100711.41
2024-02-06T06:32:36.090Z,100707.03
2024-02-06T06:37:28.016Z,100712.16
2024-02-06T06:42:19.817Z,100711.22
2024-02-06T06:47:12.711Z,100712.03
2024-02-06T06:52:06.817Z,100711.97
2024-02-06T07:02:13.717Z,100710.16
2024-02-06T07:07:05.657Z,100708.31
2024-02-06T07:11:57.865Z,100720.66
2024-02-06T07:16:51.093Z,100715.34
2024-02-06T07:21:54.407Z,100710.91
2024-02-06T07:26:46.906Z,100712.81
2024-02-06T07:31:38.624Z,100713.44
2024-02-06T07:36:30.749Z,100710.78
2024-02-06T07:41:22.647Z,100719.50
2024-02-06T07:46:15.290Z,100727.59
2024-02-06T07:51:07.254Z,100725.78
2024-02-06T07:55:59.095Z,100715.34
2024-02-06T08:00:50.891Z,100720.31
2024-02-06T08:05:42.929Z,100725.13
2024-02-06T08:10:34.856Z,100741.72
2024-02-06T08:15:26.580Z,100731.22
2024-02-06T08:20:21.086Z,100731.63
2024-02-06T08:25:13.249Z,100727.56
2024-02-06T08:30:06.722Z,100728.41
2024-02-06T08:34:58.710Z,100725.88
2024-02-06T08:39:50.553Z,100720.75
2024-02-06T08:44:42.204Z,100722.06
2024-02-06T08:49:34.077Z,100723.78
2024-02-06T08:54:26.128Z,100717.13
2024-02-06T08:59:17.881Z,100719.91
2024-02-06T09:04:10.689Z,100724.16
2024-02-06T09:09:04.809Z,100723.31
2024-02-06T09:13:56.820Z,100720.75
2024-02-06T09:18:49.258Z,100715.66
2024-02-06T09:23:40.906Z,100711.19
2024-02-06T09:28:32.691Z,100718.94
2024-02-06T09:33:24.674Z,100709.19
2024-02-06T09:38:16.383Z,100698.56
2024-02-06T09:43:08.710Z,100694.97
2024-02-06T09:48:00.855Z,100703.34
2024-02-06T09:52:54.908Z,100704.63
2024-02-06T09:57:50.488Z,100709.00
2024-02-06T10:02:46.546Z,100709.75
2024-02-06T10:07:38.806Z,100709.00
2024-02-06T10:12:31.780Z,100723.56
2024-02-06T10:17:23.617Z,100719.97
2024-02-06T10:22:15.405Z,100711.91
2024-02-06T10:27:08.201Z,100700.63
2024-02-06T10:32:00.291Z,100701.19
2024-02-06T10:36:58.125Z,100694.06
2024-02-06T10:42:24.999Z,100694.94
2024-02-06T10:47:11.338Z,100687.06
2024-02-06T10:52:07.754Z,100680.91
2024-02-06T10:57:04.958Z,100682.63
2024-02-06T11:01:57.174Z,100659.66
2024-02-06T11:06:56.022Z,100654.56
2024-02-06T11:11:49.821Z,100642.03
2024-02-06T11:16:49.045Z,100640.16
2024-02-06T11:21:44.151Z,100635.03
2024-02-06T11:26:37.211Z,100626.88
2024-02-06T11:31:29.043Z,100610.06
2024-02-06T11:36:21.706Z,100604.88
2024-02-06T11:41:19.278Z,100605.41
2024-02-06T11:46:11.807Z,100592.06
2024-02-06T11:51:04.430Z,100593.94
2024-02-06T11:56:01.363Z,100590.44
2024-02-06T12:00:53.888Z,100585.88
2024-02-06T12:05:47.220Z,100579.63
2024-02-06T12:10:40.502Z,100567.09
2024-02-06T12:15:33.571Z,100570.69
2024-02-06T12:20:28.441Z,100557.22
2024-02-06T12:25:21.876Z,100530.56
2024-02-06T12:30:23.827Z,100541.31
2024-02-06T12:35:18.608Z,100539.47
2024-02-06T12:40:11.665Z,100528.97
2024-02-06T12:45:05.899Z,100537.69
2024-02-06T12:49:57.718Z,100526.31
2024-02-06T12:54:49.572Z,100517.41
2024-02-06T12:59:41.659Z,100511.22
2024-02-06T13:04:33.922Z,100504.34
2024-02-06T13:09:33.831Z,100506.78
2024-02-06T13:14:26.372Z,100491.81
2024-02-06T13:19:25.355Z,100490.88
2024-02-06T13:24:17.950Z,100474.81
2024-02-06T13:29:09.730Z,100478.22
2024-02-06T13:34:01.870Z,100470.25
2024-02-06T13:38:53.807Z,100467.47
2024-02-06T13:43:45.628Z,100455.28
2024-02-06T13:48:37.448Z,100454.13
2024-02-06T13:53:29.294Z,100444.34
2024-02-06T13:58:21.083Z,100457.72
2024-02-06T14:03:13.205Z,100446.16
2024-02-06T14:08:05.582Z,100432.00
2024-02-06T14:12:57.361Z,100428.41
2024-02-06T14:17:49.597Z,100424.38
2024-02-06T14:22:41.738Z,100433.72
2024-02-06T14:27:33.834Z,100427.56
2024-02-06T14:32:25.521Z,100410.34
2024-02-06T14:37:18.450Z,100433.59
2024-02-06T14:42:10.205Z,100419.50
2024-02-06T14:47:02.263Z,100410.66
2024-02-06T14:51:56.383Z,100399.19
2024-02-06T14:56:50.565Z,100394.63
2024-02-06T15:01:42.445Z,100406.97
2024-02-06T15:06:35.597Z,100398.88
2024-02-06T15:11:28.717Z,100384.03
2024-02-06T15:16:20.519Z,100382.13
2024-02-06T15:21:12.377Z,100376.81
2024-02-06T15:26:04.234Z,100386.47
2024-02-06T15:30:56.133Z,100378.50
2024-02-06T15:35:48.141Z,100375.84
2024-02-06T15:40:40.770Z,100376.81
2024-02-06T15:45:32.601Z,100370.63
2024-02-06T15:50:25.569Z,100367.88
2024-02-06T15:55:20.449Z,100377.63
2024-02-06T16:00:12.423Z,100382.94
2024-02-06T16:05:05.673Z,100381.16
2024-02-06T16:09:58.915Z,100386.34
2024-02-06T16:14:50.690Z,100388.13
2024-02-06T16:19:43.656Z,100397.81
2024-02-06T16:24:35.632Z,100393.34
2024-02-06T16:29:27.349Z,100393.34
2024-02-06T16:34:20.986Z,100387.94
2024-02-06T16:39:13.888Z,100395.91
2024-02-06T16:44:05.587Z,100399.41
2024-02-06T16:48:58.117Z,100394.09
2024-02-06T16:53:49.990Z,100403.84
2024-02-06T16:58:41.890Z,100397.59
2024-02-06T17:03:33.898Z,100402.06
2024-02-06T17:08:25.792Z,100406.41
2024-02-06T17:13:17.935Z,100405.44
2024-02-06T17:18:09.655Z,100412.56
2024-02-06T17:23:01.608Z,100418.00
2024-02-06T17:27:53.366Z,100415.22
2024-02-06T17:32:45.653Z,100423.31
2024-02-06T17:37:37.462Z,100427.63
2024-02-06T17:42:30.910Z,100416.38
2024-02-06T17:47:22.784Z,100424.03
2024-02-06T17:52:14.681Z,100427.13
2024-02-06T17:57:06.543Z,100431.38
2024-02-06T18:01:59.421Z,100418.09
2024-02-06T18:06:51.387Z,100410.13
2024-02-06T18:11:43.202Z,100419.03
2024-02-06T18:16:53.664Z,100416.31
2024-02-06T18:21:45.387Z,100419.91
2024-02-06T18:26:40.241Z,100419.91
2024-02-06T18:31:32.032Z,100416.38
2024-02-06T18:36:24.019Z,100422.66
2024-02-06T18:41:23.448Z,100415.44
2024-02-06T18:46:15.206Z,100417.25
2024-02-06T18:51:07.127Z,100412.03
2024-02-06T18:55:59.551Z,100409.50
2024-02-06T19:00:51.273Z,100417.34
2024-02-06T19:05:43.023Z,100413.22
2024-02-06T19:10:35.511Z,100402.69
2024-02-06T19:15:27.285Z,100406.97
2024-02-06T19:20:19.229Z,100401.41
2024-02-06T19:25:13.518Z,100394.53
2024-02-06T19:30:06.080Z,100398.03
2024-02-06T19:34:57.950Z,100404.94
2024-02-06T19:39:49.697Z,100401.66
2024-02-06T19:44:41.586Z,100403.22
2024-02-06T19:49:33.667Z,100399.94
2024-02-06T19:54:26.463Z,100396.44
2024-02-06T19:59:18.155Z,100409.63
2024-02-06T20:04:09.980Z,100406.22
2024-02-06T20:09:02.310Z,100407.03
2024-02-06T20:13:54.259Z,100376.81
2024-02-06T20:18:46.027Z,100392.19
2024-02-06T20:23:40.872Z,100400.16
2024-02-06T20:28:33.442Z,100398.69
2024-02-06T20:33:25.293Z,100382.09
2024-02-06T20:38:17.055Z,100385.84
2024-02-06T20:43:10.456Z,100390.19
2024-02-06T20:48:05.112Z,100381.47
2024-02-06T20:52:57.404Z,100391.78
2024-02-06T20:57:49.307Z,100382.09
2024-02-06T21:02:41.109Z,100381.28
2024-02-06T21:07:33.359Z,100381.47
2024-02-06T21:12:25.107Z,100378.00
2024-02-06T21:17:16.898Z,100382.56
2024-02-06T21:22:08.622Z,100376.41
2024-02-06T21:27:00.645Z,100366.94
2024-02-06T21:31:52.715Z,100363.34
2024-02-06T21:36:44.564Z,100361.53
2024-02-06T21:41:36.276Z,100358.13
2024-02-06T21:46:28.066Z,100354.00
2024-02-06T21:51:19.778Z,100352.19
2024-02-06T21:56:18.623Z,100339.78
2024-02-06T22:01:14.054Z,100338.09
2024-02-06T22:06:06.656Z,100327.59
2024-02-06T22:10:58.781Z,100332.25
2024-02-06T22:15:50.978Z,100327.91
2024-02-06T22:20:42.867Z,100319.97
2024-02-06T22:25:36.085Z,100311.00
2024-02-06T22:30:27.786Z,100310.28
2024-02-06T22:35:19.634Z,100305.81
2024-02-06T22:40:11.937Z,100299.78
2024-02-06T22:45:03.963Z,100307.72
2024-02-06T22:49:55.908Z,100296.56
2024-02-06T22:54:47.796Z,100304.44
2024-02-06T22:59:39.549Z,100294.00
2024-02-06T23:04:31.466Z,100300.06
2024-02-06T23:09:23.397Z,100303.66
2024-02-06T23:14:15.733Z,100302.09
2024-02-06T23:19:08.285Z,100290.53
2024-02-06T23:24:00.869Z,100296.66
2024-02-06T23:28:52.718Z,100302.94
2024-02-06T23:33:45.839Z,100295.94
2024-02-06T23:38:46.547Z,100291.47
2024-02-06T23:43:45.921Z,100289.03
2024-02-06T23:48:38.654Z,100280.03
2024-02-06T23:53:30.395Z,100285.22
2024-02-06T23:58:22.177Z,100268.88
